Aliceville, Alabama
Current Conditions -  °F | °C
As of 12:53 PM on Monday 20 Oct 2014 (Local Time) from KTCL Reporting Station
Clear Clear  
Wind Chill: 71°   Ceiling: Unl
Heat Index: 71°   Visibility: 10mi
Dew Point: 47°   Wind: 7mph
Humidity: 42%   Direction: 290°WNW
Pressure: 30.07"   Gusts: NA
Location:  33.13°N, 88.15°W
Report Text: KTCL 201753Z 29006KT 10SM CLR 22/08 A3007 RMK AO2 SLP179 T02170083 10228 20072 58017
Loading
Personal Weather Stations






























Interactive Weather Map New forecast layout! Learn more

10-Day Weather Forecast

Advertisements
Track Severe Weather on mobile